Time;durP1;ratioP1;P1;durP2;ratioP2;P2;SDS_P1;SDS_P2;PMS_P1;PMS_P2;Temp;Humidity;BMP_temperature;BMP_pressure;BME280_temperature;BME280_humidity;BME280_pressure;Samples;Min_cycle;Max_cycle;Signal;HPM_P1;HPM_P2
2021/11/08 00:01:53;;;;;;;23.98;17.88;;;10.60;99.90;;;;;;5033733;28;20029;-74
2021/11/08 00:04:19;;;;;;;23.92;17.55;;;10.60;99.90;;;;;;5035121;28;20044;-74
2021/11/08 00:06:46;;;;;;;25.38;17.83;;;10.60;99.90;;;;;;5034585;28;20017;-74
2021/11/08 00:09:13;;;;;;;25.02;17.90;;;10.60;99.90;;;;;;5034557;28;20022;-73
2021/11/08 00:11:40;;;;;;;23.52;17.48;;;10.60;99.90;;;;;;5030660;28;20025;-74
2021/11/08 00:14:09;;;;;;;25.60;18.23;;;10.60;99.90;;;;;;5031822;28;20029;-73
2021/11/08 00:16:46;;;;;;;25.92;18.10;;;10.50;99.90;;;;;;5033488;28;20021;-73
2021/11/08 00:21:59;;;;;;;24.52;18.40;;;10.50;99.90;;;;;;5040020;28;20036;-73
2021/11/08 00:24:26;;;;;;;26.90;18.02;;;10.60;99.90;;;;;;5037440;28;20030;-73
2021/11/08 00:26:52;;;;;;;26.65;18.48;;;10.50;99.90;;;;;;5036912;28;20068;-74
2021/11/08 00:29:18;;;;;;;24.45;17.98;;;10.50;99.90;;;;;;5038414;28;20378;-73
2021/11/08 00:31:44;;;;;;;24.33;18.70;;;10.50;99.90;;;;;;5031671;28;20021;-74
2021/11/08 00:34:10;;;;;;;26.50;18.83;;;10.50;99.90;;;;;;5027843;28;20353;-74
2021/11/08 00:36:36;;;;;;;26.45;18.67;;;10.50;99.90;;;;;;5034279;28;20037;-73
2021/11/08 00:39:04;;;;;;;26.48;18.38;;;10.60;99.90;;;;;;5031641;28;20451;-73
2021/11/08 00:41:30;;;;;;;24.73;18.17;;;10.50;99.90;;;;;;5030739;28;20363;-73
2021/11/08 00:43:55;;;;;;;27.58;18.98;;;10.50;99.90;;;;;;5024442;28;20049;-74
2021/11/08 00:46:21;;;;;;;29.42;20.35;;;10.50;99.90;;;;;;5063301;28;20022;-72
2021/11/08 00:48:47;;;;;;;26.38;18.27;;;10.50;99.90;;;;;;5032469;28;20017;-73
2021/11/08 00:51:15;;;;;;;26.73;19.10;;;10.60;99.90;;;;;;5034324;28;20028;-73
2021/11/08 00:53:41;;;;;;;27.02;19.83;;;10.50;99.90;;;;;;5033645;28;20423;-73
2021/11/08 00:56:12;;;;;;;30.80;18.67;;;10.50;99.90;;;;;;5032754;28;20026;-73
2021/11/08 00:58:40;;;;;;;28.98;19.95;;;10.50;99.90;;;;;;5032552;28;20387;-73
2021/11/08 01:01:08;;;;;;;24.95;17.75;;;10.50;99.90;;;;;;5032128;28;20112;-72
2021/11/08 01:03:40;;;;;;;27.77;19.35;;;10.50;99.90;;;;;;5033872;28;20022;-73
2021/11/08 01:06:07;;;;;;;33.63;19.98;;;10.50;99.90;;;;;;5032746;28;20100;-73
2021/11/08 01:08:32;;;;;;;29.48;20.27;;;10.50;99.90;;;;;;5032207;28;20048;-73
2021/11/08 01:10:59;;;;;;;27.58;19.80;;;10.50;99.90;;;;;;5044087;28;20018;-72
2021/11/08 01:13:24;;;;;;;30.42;20.98;;;10.50;99.90;;;;;;5039332;28;20027;-73
2021/11/08 01:15:51;;;;;;;30.00;19.80;;;10.50;99.90;;;;;;5034675;28;20100;-75
2021/11/08 01:18:18;;;;;;;34.30;22.67;;;10.50;99.90;;;;;;5028392;28;20022;-73
2021/11/08 01:20:46;;;;;;;37.72;23.77;;;10.50;99.90;;;;;;5029390;28;20014;-73
2021/11/08 01:23:15;;;;;;;66.75;36.40;;;10.50;99.90;;;;;;5028604;28;20021;-73
2021/11/08 01:25:41;;;;;;;79.95;40.97;;;10.60;99.90;;;;;;5031531;28;20056;-73
2021/11/08 01:28:09;;;;;;;74.80;39.22;;;10.60;99.90;;;;;;5016689;28;20041;-73
2021/11/08 01:30:35;;;;;;;62.17;30.77;;;10.60;99.90;;;;;;5029510;28;20113;-73
2021/11/08 01:33:08;;;;;;;40.25;26.30;;;10.60;99.90;;;;;;5031385;28;20144;-73
2021/11/08 01:35:45;;;;;;;38.22;25.35;;;10.70;99.90;;;;;;5026362;28;20464;-73
2021/11/08 01:40:43;;;;;;;50.22;28.52;;;10.60;99.90;;;;;;5031674;28;20021;-73
2021/11/08 01:43:11;;;;;;;67.38;33.45;;;10.60;99.90;;;;;;5032513;28;20041;-73
2021/11/08 01:45:38;;;;;;;73.25;35.80;;;10.50;99.90;;;;;;5032687;28;20044;-73
2021/11/08 01:48:05;;;;;;;90.45;41.45;;;10.50;99.90;;;;;;5029327;28;20049;-73
2021/11/08 01:50:31;;;;;;;109.13;49.70;;;10.40;99.90;;;;;;5031918;28;20021;-73
2021/11/08 01:52:58;;;;;;;126.43;50.78;;;10.40;99.90;;;;;;5031739;28;20120;-73
2021/11/08 01:55:26;;;;;;;128.43;51.65;;;10.30;99.90;;;;;;5028466;28;20018;-73
2021/11/08 01:57:52;;;;;;;152.65;64.05;;;10.20;99.90;;;;;;5030090;28;20105;-73
2021/11/08 02:00:19;;;;;;;192.82;72.65;;;10.20;99.90;;;;;;5030834;28;20033;-73
2021/11/08 02:02:45;;;;;;;164.75;64.68;;;10.10;99.90;;;;;;5032231;28;20030;-73
2021/11/08 02:05:11;;;;;;;156.50;60.05;;;10.00;99.90;;;;;;5032630;28;20033;-73
2021/11/08 02:07:38;;;;;;;148.27;59.58;;;10.00;99.90;;;;;;5019594;28;20063;-72
2021/11/08 02:10:07;;;;;;;124.97;49.63;;;9.90;99.90;;;;;;5031685;28;20073;-73
2021/11/08 02:12:33;;;;;;;85.18;38.83;;;9.90;99.90;;;;;;5033574;28;20439;-73
2021/11/08 02:15:01;;;;;;;80.75;36.30;;;9.90;99.90;;;;;;5035298;28;20406;-72
2021/11/08 02:17:30;;;;;;;59.50;31.05;;;9.80;99.90;;;;;;5033859;28;20048;-72
2021/11/08 02:19:58;;;;;;;53.03;28.52;;;9.80;99.90;;;;;;5034611;28;20025;-72
2021/11/08 02:22:24;;;;;;;52.72;28.92;;;9.70;99.90;;;;;;5026867;28;20026;-72
2021/11/08 02:24:50;;;;;;;51.25;29.30;;;9.70;99.90;;;;;;5036330;28;20033;-72
2021/11/08 02:27:20;;;;;;;58.38;32.13;;;9.70;99.90;;;;;;5036111;28;20025;-73
2021/11/08 02:29:46;;;;;;;63.83;33.33;;;9.70;99.90;;;;;;5029312;28;20078;-73
2021/11/08 02:32:12;;;;;;;81.10;37.83;;;9.70;99.90;;;;;;5035650;28;20438;-73
2021/11/08 02:34:38;;;;;;;69.28;35.10;;;9.60;99.90;;;;;;5034702;28;20074;-72
2021/11/08 02:37:05;;;;;;;73.07;35.75;;;9.60;99.90;;;;;;5033499;28;20018;-73
2021/11/08 02:39:37;;;;;;;57.60;32.95;;;9.60;99.90;;;;;;5025538;28;20029;-73
2021/11/08 02:42:05;;;;;;;69.22;34.92;;;9.60;99.90;;;;;;5035153;28;20032;-73
2021/11/08 02:44:31;;;;;;;76.68;38.35;;;9.60;99.90;;;;;;5025443;28;20057;-73
2021/11/08 02:46:57;;;;;;;59.92;32.25;;;9.60;99.90;;;;;;5045274;28;20075;-73
2021/11/08 02:49:25;;;;;;;66.68;33.95;;;9.70;99.90;;;;;;5029958;28;20021;-73
2021/11/08 02:52:00;;;;;;;57.60;33.15;;;9.70;99.90;;;;;;5025636;28;20475;-71
2021/11/08 02:54:31;;;;;;;65.22;34.67;;;9.80;99.90;;;;;;5022519;28;20025;-72
2021/11/08 02:56:57;;;;;;;62.40;33.47;;;9.80;99.90;;;;;;5022571;28;20088;-73
2021/11/08 02:59:25;;;;;;;81.43;38.95;;;9.90;99.90;;;;;;5038329;28;20410;-73
2021/11/08 03:01:52;;;;;;;152.13;56.92;;;10.00;99.90;;;;;;5041438;28;20036;-73
2021/11/08 03:04:23;;;;;;;161.23;59.03;;;10.10;99.90;;;;;;5042783;28;20071;-72
2021/11/08 03:06:48;;;;;;;98.00;42.45;;;10.20;99.90;;;;;;5040831;28;20056;-73
2021/11/08 03:09:32;;;;;;;83.32;39.72;;;10.20;99.90;;;;;;5047278;28;20017;-73
2021/11/08 03:12:02;;;;;;;73.28;35.30;;;10.30;99.90;;;;;;5026750;28;20025;-73
2021/11/08 03:14:31;;;;;;;75.50;36.65;;;10.30;99.90;;;;;;5035880;28;20052;-74
2021/11/08 03:16:59;;;;;;;75.97;36.97;;;10.40;99.90;;;;;;5035956;28;20026;-73
2021/11/08 03:21:54;;;;;;;66.97;34.00;;;10.50;99.90;;;;;;5035773;28;20030;-75
2021/11/08 03:24:37;;;;;;;54.47;30.17;;;10.60;99.90;;;;;;5035500;28;20072;-74
2021/11/08 03:27:17;;;;;;;43.30;28.30;;;10.60;99.90;;;;;;5021677;28;20025;-74
2021/11/08 03:29:43;;;;;;;48.42;28.25;;;10.60;99.90;;;;;;5035320;28;20017;-74
2021/11/08 03:32:10;;;;;;;43.38;29.55;;;10.70;99.90;;;;;;5035512;28;20324;-74
2021/11/08 03:34:39;;;;;;;41.50;26.65;;;10.70;99.90;;;;;;5035573;28;20362;-74
2021/11/08 03:37:05;;;;;;;49.10;30.00;;;10.70;99.90;;;;;;5035321;28;20024;-74
2021/11/08 03:39:31;;;;;;;53.30;30.92;;;10.70;99.90;;;;;;5035721;28;20021;-74
2021/11/08 03:41:57;;;;;;;46.95;28.55;;;10.70;99.90;;;;;;5035452;28;20470;-73
2021/11/08 03:44:23;;;;;;;52.67;30.80;;;10.60;99.90;;;;;;5033884;28;20044;-73
2021/11/08 03:46:49;;;;;;;55.28;31.20;;;10.70;99.90;;;;;;5035136;28;20028;-72
2021/11/08 03:49:14;;;;;;;54.03;30.75;;;10.70;99.90;;;;;;5034921;28;20017;-73
2021/11/08 03:51:40;;;;;;;45.45;27.90;;;10.70;99.90;;;;;;5037964;28;20060;-73
2021/11/08 03:54:06;;;;;;;38.25;25.33;;;10.70;99.90;;;;;;5033786;28;20048;-73
2021/11/08 03:56:32;;;;;;;33.65;25.40;;;10.70;99.90;;;;;;5034998;28;20057;-73
2021/11/08 03:59:00;;;;;;;36.67;27.50;;;10.80;99.90;;;;;;5035540;28;20108;-73
2021/11/08 04:01:29;;;;;;;39.03;28.00;;;10.80;99.90;;;;;;5041420;28;20048;-73
2021/11/08 04:03:54;;;;;;;43.88;32.60;;;10.90;99.90;;;;;;5031805;28;20030;-73
2021/11/08 04:06:20;;;;;;;45.78;33.97;;;10.90;99.90;;;;;;5046051;28;20482;-73
2021/11/08 04:08:46;;;;;;;44.15;33.13;;;10.90;99.90;;;;;;5038666;28;20017;-73
2021/11/08 04:11:12;;;;;;;52.40;38.15;;;10.90;99.90;;;;;;5034088;28;20112;-73
2021/11/08 04:13:41;;;;;;;49.38;35.70;;;10.90;99.90;;;;;;5023468;28;20357;-74
2021/11/08 04:16:08;;;;;;;47.67;34.78;;;10.80;99.90;;;;;;5046797;28;20465;-74
2021/11/08 04:18:35;;;;;;;48.20;34.17;;;10.80;99.90;;;;;;5032725;28;20025;-73
2021/11/08 04:21:02;;;;;;;47.88;32.60;;;10.70;99.90;;;;;;5037740;28;20028;-73
2021/11/08 04:23:29;;;;;;;48.92;31.23;;;10.70;99.90;;;;;;5036092;28;20031;-74
2021/11/08 04:25:57;;;;;;;39.42;28.13;;;10.80;99.90;;;;;;5026022;28;20336;-73
2021/11/08 04:28:23;;;;;;;35.80;26.75;;;10.70;99.90;;;;;;5029556;28;20076;-74
2021/11/08 04:30:50;;;;;;;34.28;25.65;;;10.70;99.90;;;;;;5032437;28;20474;-72
2021/11/08 04:33:30;;;;;;;38.08;27.63;;;10.80;99.90;;;;;;5028998;28;20026;-73
2021/11/08 04:41:13;;;;;;;35.88;26.88;;;10.60;99.90;;;;;;5034319;28;20112;-74
2021/11/08 05:31:44;;;;;;;48.85;35.33;;;9.90;99.90;;;;;;5030995;28;20021;-75
2021/11/08 05:34:11;;;;;;;51.53;36.08;;;10.00;99.90;;;;;;5025031;28;20079;-74
2021/11/08 05:36:37;;;;;;;50.55;35.00;;;10.10;99.90;;;;;;5022940;28;20052;-74
2021/11/08 05:39:05;;;;;;;51.95;35.47;;;10.20;99.90;;;;;;5030429;28;20049;-73
2021/11/08 05:41:32;;;;;;;54.50;37.55;;;10.20;99.90;;;;;;5029377;28;20014;-73
2021/11/08 05:43:58;;;;;;;52.15;36.22;;;10.30;99.90;;;;;;5030547;28;20041;-74
2021/11/08 05:46:24;;;;;;;51.70;36.28;;;10.30;99.90;;;;;;5031781;28;20021;-73
2021/11/08 05:48:50;;;;;;;49.63;34.25;;;10.40;99.90;;;;;;5035743;28;20459;-73
2021/11/08 05:51:16;;;;;;;48.50;33.55;;;10.50;99.90;;;;;;5042104;28;20032;-73
2021/11/08 05:53:47;;;;;;;44.42;33.33;;;10.60;99.90;;;;;;5037614;28;20025;-74
2021/11/08 06:50:44;;;;;;;29.55;22.48;;;12.10;90.90;;;;;;5041481;28;20108;-74
2021/11/08 06:53:17;;;;;;;30.42;23.83;;;12.10;90.30;;;;;;5027845;28;20025;-72
2021/11/08 06:55:47;;;;;;;32.72;23.80;;;12.20;89.70;;;;;;5031060;28;20021;-74
2021/11/08 06:58:17;;;;;;;32.17;24.75;;;12.10;88.90;;;;;;5034358;28;20027;-72
2021/11/08 07:00:43;;;;;;;34.65;25.42;;;12.10;88.80;;;;;;5034375;28;20013;-74
2021/11/08 07:03:08;;;;;;;32.17;25.52;;;12.10;88.60;;;;;;5032033;28;20017;-74
2021/11/08 07:05:34;;;;;;;29.95;23.60;;;12.10;88.40;;;;;;5037453;28;20086;-73
2021/11/08 07:08:00;;;;;;;32.47;23.55;;;12.10;88.00;;;;;;5038861;28;20034;-74
2021/11/08 07:10:26;;;;;;;29.95;22.08;;;12.00;87.40;;;;;;5034140;28;20048;-74
2021/11/08 07:12:52;;;;;;;36.45;23.80;;;11.90;86.80;;;;;;5034060;28;20099;-75
2021/11/08 07:15:19;;;;;;;43.88;26.33;;;12.00;88.40;;;;;;5035350;28;20103;-71
2021/11/08 07:17:46;;;;;;;38.55;25.02;;;12.10;87.00;;;;;;5033805;28;20068;-73
2021/11/08 07:20:12;;;;;;;41.42;25.30;;;12.10;86.40;;;;;;5054500;28;20059;-73
2021/11/08 07:22:38;;;;;;;36.58;25.92;;;12.10;86.10;;;;;;5033214;28;20028;-74
2021/11/08 07:25:05;;;;;;;35.88;24.65;;;12.20;85.20;;;;;;5032705;28;20029;-73
2021/11/08 07:27:31;;;;;;;34.70;23.67;;;12.10;85.30;;;;;;5036090;28;20027;-73
2021/11/08 07:29:57;;;;;;;31.85;21.88;;;12.50;87.30;;;;;;5034141;28;20021;-73
2021/11/08 07:32:25;;;;;;;31.15;21.10;;;13.30;86.80;;;;;;5035985;28;20022;-73
2021/11/08 07:34:55;;;;;;;29.52;19.40;;;14.20;83.40;;;;;;5033777;28;20095;-74
2021/11/08 07:37:21;;;;;;;29.00;18.63;;;15.20;79.60;;;;;;5039346;28;20608;-73
2021/11/08 07:39:47;;;;;;;28.25;18.35;;;16.10;76.60;;;;;;5056726;28;20029;-72
2021/11/08 07:42:13;;;;;;;33.22;20.60;;;17.10;73.70;;;;;;5049854;28;20017;-72
2021/11/08 07:44:39;;;;;;;27.40;18.13;;;17.90;70.60;;;;;;5040111;28;20049;-72
2021/11/08 07:47:05;;;;;;;22.02;16.17;;;18.70;67.50;;;;;;5030528;28;20018;-71
2021/11/08 07:49:31;;;;;;;21.92;16.38;;;19.40;64.60;;;;;;5032490;28;20017;-72
2021/11/08 07:51:57;;;;;;;23.73;16.30;;;19.80;62.10;;;;;;5033466;28;20024;-72
2021/11/08 07:54:23;;;;;;;19.20;14.05;;;19.90;61.00;;;;;;5037405;28;20096;-71
2021/11/08 07:56:49;;;;;;;19.05;14.65;;;20.00;60.40;;;;;;5033143;28;20204;-75
2021/11/08 07:59:16;;;;;;;18.80;14.60;;;20.00;59.40;;;;;;5033187;28;20109;-71
2021/11/08 08:01:43;;;;;;;19.70;15.05;;;20.00;59.30;;;;;;5058250;28;20029;-71
2021/11/08 08:04:09;;;;;;;19.38;14.77;;;20.20;59.40;;;;;;5035260;28;20037;-71
2021/11/08 08:06:35;;;;;;;19.70;13.55;;;20.70;58.80;;;;;;5039886;28;20104;-72
2021/11/08 08:09:01;;;;;;;18.48;14.65;;;21.00;57.80;;;;;;5036823;28;20025;-72
2021/11/08 08:11:27;;;;;;;17.25;14.38;;;21.40;57.20;;;;;;5033384;28;20045;-72
2021/11/08 08:13:53;;;;;;;19.67;14.75;;;21.70;55.50;;;;;;5034304;28;20057;-71
2021/11/08 08:16:20;;;;;;;19.95;14.05;;;21.40;54.60;;;;;;5033403;28;20109;-71
2021/11/08 08:18:48;;;;;;;17.88;13.98;;;20.70;54.00;;;;;;5033224;28;20049;-72
2021/11/08 08:21:15;;;;;;;19.67;14.40;;;19.90;55.20;;;;;;5034287;28;20025;-71
2021/11/08 08:23:41;;;;;;;24.08;14.25;;;19.50;56.60;;;;;;5034832;28;20028;-71
2021/11/08 08:26:09;;;;;;;18.67;14.40;;;19.70;57.30;;;;;;5034737;28;20033;-71
2021/11/08 08:28:34;;;;;;;17.63;13.30;;;19.90;56.70;;;;;;5033580;28;20080;-71
2021/11/08 08:31:00;;;;;;;20.90;14.93;;;19.80;56.50;;;;;;5036524;28;20017;-71
2021/11/08 08:33:27;;;;;;;22.15;15.07;;;20.00;56.60;;;;;;5036598;28;20028;-72
2021/11/08 08:35:53;;;;;;;22.73;14.50;;;20.40;56.50;;;;;;5040378;28;20024;-73
2021/11/08 08:38:19;;;;;;;17.85;12.98;;;20.70;55.40;;;;;;5036994;28;20014;-72
2021/11/08 08:40:47;;;;;;;20.02;14.63;;;20.40;54.30;;;;;;5034473;28;20017;-71
2021/11/08 08:43:14;;;;;;;16.23;11.73;;;20.10;54.60;;;;;;5034676;28;20090;-70
2021/11/08 08:45:41;;;;;;;15.60;11.10;;;20.10;54.60;;;;;;5032802;28;20352;-71
2021/11/08 08:48:07;;;;;;;19.40;13.45;;;20.20;54.50;;;;;;5033121;28;20387;-70
2021/11/08 08:50:35;;;;;;;17.23;13.10;;;20.30;54.40;;;;;;5033027;28;20025;-71
2021/11/08 08:53:00;;;;;;;16.17;12.25;;;20.10;54.10;;;;;;5032875;28;20100;-70
2021/11/08 08:55:26;;;;;;;16.80;12.20;;;19.90;54.60;;;;;;5032749;28;20120;-71
2021/11/08 08:57:53;;;;;;;16.25;11.38;;;19.80;54.50;;;;;;5032826;28;20029;-71
2021/11/08 09:00:20;;;;;;;54.38;41.88;;;19.50;54.50;;;;;;5032616;28;20025;-71
2021/11/08 09:02:51;;;;;;;20.75;13.23;;;19.30;54.80;;;;;;5032168;28;20013;-70
2021/11/08 09:05:18;;;;;;;14.90;11.65;;;19.40;55.10;;;;;;5032802;28;20085;-72
2021/11/08 09:07:44;;;;;;;19.27;11.80;;;19.30;54.50;;;;;;5033650;28;20018;-70
2021/11/08 09:10:10;;;;;;;16.83;11.73;;;19.00;54.60;;;;;;5032659;28;20052;-70
2021/11/08 09:12:36;;;;;;;15.73;11.05;;;18.60;55.30;;;;;;5032567;28;20052;-70
2021/11/08 09:15:04;;;;;;;19.55;12.05;;;18.50;55.80;;;;;;5032318;28;20067;-70
2021/11/08 09:17:31;;;;;;;14.70;9.63;;;18.90;55.70;;;;;;5033671;28;20056;-71
2021/11/08 09:19:57;;;;;;;17.58;10.75;;;18.80;54.60;;;;;;5032713;28;20121;-71
2021/11/08 09:22:23;;;;;;;12.43;9.93;;;18.50;54.50;;;;;;5033549;28;20026;-70
2021/11/08 09:24:49;;;;;;;13.82;10.45;;;18.10;54.70;;;;;;5031755;28;20028;-71
2021/11/08 09:27:14;;;;;;;14.95;11.05;;;17.80;55.60;;;;;;5031678;28;20021;-71
2021/11/08 09:29:41;;;;;;;15.73;10.40;;;17.70;55.90;;;;;;5039155;28;20022;-71
2021/11/08 09:32:07;;;;;;;14.77;11.70;;;17.60;56.00;;;;;;5040765;28;20041;-70
2021/11/08 09:34:37;;;;;;;14.65;10.43;;;17.60;56.20;;;;;;5033015;28;20371;-72
2021/11/08 09:37:04;;;;;;;14.80;9.80;;;17.90;56.10;;;;;;5021337;28;20071;-71
2021/11/08 09:39:34;;;;;;;15.60;9.98;;;18.30;55.60;;;;;;5033292;28;20020;-71
2021/11/08 09:42:02;;;;;;;14.57;10.05;;;18.70;55.00;;;;;;5031938;28;20017;-71
2021/11/08 09:44:28;;;;;;;12.30;9.75;;;18.90;53.90;;;;;;5033434;28;20045;-72
2021/11/08 09:46:57;;;;;;;15.00;10.30;;;18.70;53.60;;;;;;5031468;28;20045;-71
2021/11/08 09:49:23;;;;;;;15.60;11.07;;;18.40;53.60;;;;;;5032239;28;20036;-71
2021/11/08 09:51:51;;;;;;;15.05;10.25;;;18.10;53.80;;;;;;5032354;28;20375;-71
2021/11/08 09:54:19;;;;;;;12.73;9.30;;;17.80;54.50;;;;;;5031775;28;20040;-71
2021/11/08 09:56:48;;;;;;;14.15;9.73;;;17.40;55.10;;;;;;5032865;28;20087;-71
2021/11/08 09:59:15;;;;;;;14.68;10.93;;;17.10;55.90;;;;;;5031719;28;20021;-71
2021/11/08 10:01:43;;;;;;;15.52;10.57;;;17.00;56.50;;;;;;5033239;28;20080;-71
2021/11/08 10:04:14;;;;;;;17.23;10.57;;;16.80;56.80;;;;;;5031830;28;20373;-71
2021/11/08 10:06:41;;;;;;;18.27;11.07;;;16.80;57.20;;;;;;5033016;28;20029;-71
2021/11/08 10:09:10;;;;;;;14.27;10.68;;;16.60;57.60;;;;;;5031537;28;20026;-72
2021/11/08 10:11:40;;;;;;;22.13;13.52;;;16.50;57.80;;;;;;5033601;28;20026;-71
2021/11/08 10:14:07;;;;;;;17.08;11.77;;;16.60;58.20;;;;;;5031838;28;20056;-72
2021/11/08 10:16:36;;;;;;;14.55;10.80;;;16.60;58.20;;;;;;5031878;28;20017;-70
2021/11/08 10:19:05;;;;;;;17.70;12.00;;;17.00;58.50;;;;;;5031281;28;20022;-71
2021/11/08 10:21:35;;;;;;;15.32;11.02;;;17.90;57.10;;;;;;5031582;28;20017;-70
2021/11/08 10:24:07;;;;;;;14.05;11.35;;;18.50;55.90;;;;;;5033598;28;20108;-71
2021/11/08 10:26:36;;;;;;;14.75;10.95;;;19.30;54.80;;;;;;5040019;28;20099;-72
2021/11/08 10:29:09;;;;;;;14.90;10.85;;;20.00;53.30;;;;;;5037066;28;20398;-71
2021/11/08 10:31:42;;;;;;;14.13;10.98;;;20.10;52.00;;;;;;5033029;28;20094;-72
2021/11/08 10:34:10;;;;;;;17.80;11.73;;;19.90;51.30;;;;;;5032847;28;20052;-71
2021/11/08 10:36:37;;;;;;;16.42;11.68;;;19.30;51.80;;;;;;5031427;28;20109;-71
2021/11/08 10:39:06;;;;;;;17.55;11.57;;;18.70;52.30;;;;;;5036550;28;20021;-72
2021/11/08 10:41:35;;;;;;;15.52;11.65;;;18.00;53.50;;;;;;5036592;28;20075;-72
2021/11/08 10:44:16;;;;;;;17.88;11.13;;;17.70;54.70;;;;;;5036467;28;20403;-71
2021/11/08 10:46:48;;;;;;;16.55;10.73;;;17.50;54.60;;;;;;5036324;28;20025;-71
2021/11/08 10:49:17;;;;;;;14.45;10.80;;;17.20;55.00;;;;;;5036271;28;20013;-73
2021/11/08 10:51:46;;;;;;;14.93;9.93;;;16.70;55.70;;;;;;5036494;28;20029;-71
2021/11/08 10:54:37;;;;;;;14.57;10.45;;;16.40;56.40;;;;;;5036472;28;20034;-72
2021/11/08 10:57:10;;;;;;;14.90;10.73;;;16.00;57.20;;;;;;5060798;28;20116;-69
2021/11/08 10:59:43;;;;;;;15.55;10.52;;;15.80;58.10;;;;;;5036187;28;20072;-71
2021/11/08 11:02:12;;;;;;;15.25;10.90;;;15.60;58.60;;;;;;5029215;28;20026;-70
2021/11/08 11:04:45;;;;;;;16.20;10.80;;;15.30;59.20;;;;;;5034895;28;20045;-71
2021/11/08 11:07:36;;;;;;;15.70;10.95;;;15.30;59.90;;;;;;5036285;28;20022;-71
2021/11/08 11:10:15;;;;;;;14.80;10.57;;;16.00;60.10;;;;;;5057225;28;20053;-71
2021/11/08 11:12:46;;;;;;;16.35;10.50;;;16.70;58.60;;;;;;5034545;28;20021;-72
2021/11/08 11:15:15;;;;;;;14.95;10.60;;;16.90;57.50;;;;;;5036418;28;20478;-72
2021/11/08 11:17:46;;;;;;;13.93;10.23;;;16.80;57.40;;;;;;5036363;28;20118;-71
2021/11/08 11:20:13;;;;;;;15.75;10.30;;;16.70;57.20;;;;;;5041011;28;20107;-71
2021/11/08 11:22:44;;;;;;;20.17;10.55;;;16.40;57.50;;;;;;5041090;28;20039;-71
2021/11/08 11:25:12;;;;;;;15.85;9.95;;;16.10;57.90;;;;;;5040742;28;20060;-72
2021/11/08 11:27:47;;;;;;;15.00;9.45;;;15.90;58.40;;;;;;5035886;28;20475;-72
2021/11/08 11:30:16;;;;;;;17.20;10.18;;;15.70;58.80;;;;;;5054955;28;20456;-71
2021/11/08 11:32:43;;;;;;;17.02;10.65;;;15.30;59.50;;;;;;5034500;28;20029;-72
2021/11/08 11:35:20;;;;;;;16.75;10.38;;;15.00;60.50;;;;;;5035651;28;20052;-71
2021/11/08 11:38:18;;;;;;;17.83;10.90;;;14.80;61.40;;;;;;5036012;28;20017;-71
2021/11/08 11:40:54;;;;;;;20.83;12.15;;;14.70;62.00;;;;;;5012306;28;20029;-71
2021/11/08 11:43:29;;;;;;;18.27;12.65;;;14.60;61.90;;;;;;5034156;28;20387;-72
2021/11/08 11:45:55;;;;;;;19.52;13.48;;;14.60;62.20;;;;;;5033870;28;20033;-72
2021/11/08 11:48:26;;;;;;;17.42;12.65;;;14.50;62.30;;;;;;5035273;28;20464;-71
2021/11/08 11:50:52;;;;;;;16.33;11.52;;;14.30;62.70;;;;;;5034860;28;20014;-70
2021/11/08 11:53:18;;;;;;;17.65;11.00;;;14.30;63.20;;;;;;5035214;28;20447;-71
2021/11/08 11:55:46;;;;;;;21.13;11.73;;;14.30;63.30;;;;;;5033732;28;20037;-71
2021/11/08 11:58:13;;;;;;;18.42;12.45;;;14.20;63.50;;;;;;5035425;28;20017;-70
2021/11/08 12:00:41;;;;;;;21.92;13.18;;;14.30;63.60;;;;;;5033539;28;20451;-72
2021/11/08 12:03:07;;;;;;;18.90;12.63;;;14.30;63.40;;;;;;5033858;28;20025;-71
2021/11/08 12:05:35;;;;;;;19.20;11.75;;;14.20;63.70;;;;;;5035095;28;20116;-72
2021/11/08 12:08:04;;;;;;;15.23;9.50;;;14.00;63.90;;;;;;5033224;28;20018;-71
2021/11/08 12:10:31;;;;;;;16.67;10.52;;;13.90;64.20;;;;;;5026730;28;20025;-71
2021/11/08 12:12:57;;;;;;;15.65;8.95;;;13.90;64.50;;;;;;5033669;28;20018;-73
2021/11/08 12:15:31;;;;;;;16.52;9.30;;;13.80;64.50;;;;;;5037994;28;20053;-71
2021/11/08 12:18:09;;;;;;;14.15;9.57;;;13.80;64.40;;;;;;5040211;28;20024;-72
2021/11/08 12:20:56;;;;;;;12.23;8.55;;;13.70;64.50;;;;;;5037766;28;20021;-71
2021/11/08 12:23:24;;;;;;;13.27;9.40;;;13.50;64.70;;;;;;5023213;28;20021;-72
2021/11/08 12:25:51;;;;;;;14.13;9.52;;;13.40;64.60;;;;;;5034965;28;20065;-72
2021/11/08 12:28:20;;;;;;;12.68;8.43;;;13.30;64.90;;;;;;5034650;28;20041;-70
2021/11/08 12:30:49;;;;;;;13.55;8.82;;;13.20;65.00;;;;;;5033035;28;20021;-72
2021/11/08 12:33:26;;;;;;;13.02;7.78;;;13.10;65.20;;;;;;5033414;28;20021;-71
2021/11/08 12:36:05;;;;;;;14.55;8.18;;;13.00;65.40;;;;;;5033658;28;20075;-72
2021/11/08 12:38:34;;;;;;;13.80;7.95;;;13.00;65.60;;;;;;5034383;28;20452;-72
2021/11/08 12:41:17;;;;;;;15.45;9.77;;;12.90;65.80;;;;;;5033981;28;20096;-70
2021/11/08 12:43:57;;;;;;;13.05;9.15;;;12.90;66.10;;;;;;5019451;28;20387;-72
2021/11/08 12:46:26;;;;;;;13.35;8.80;;;12.90;66.30;;;;;;5033220;28;20035;-71
2021/11/08 12:49:03;;;;;;;16.77;9.68;;;12.90;66.40;;;;;;5032706;28;20021;-71
2021/11/08 12:51:30;;;;;;;13.30;9.15;;;12.80;66.40;;;;;;5033136;28;20079;-71
2021/11/08 12:54:22;;;;;;;17.15;10.73;;;12.70;66.50;;;;;;5033704;28;20071;-71
2021/11/08 12:56:48;;;;;;;15.45;10.45;;;12.60;67.00;;;;;;5062886;28;20132;-71
2021/11/08 12:59:21;;;;;;;16.77;10.07;;;12.60;67.30;;;;;;5033944;28;20043;-72
2021/11/08 13:02:09;;;;;;;17.75;9.68;;;12.50;67.40;;;;;;5033174;28;20017;-70
2021/11/08 13:04:52;;;;;;;14.13;9.20;;;12.60;67.50;;;;;;5019988;28;20463;-70
2021/11/08 13:07:19;;;;;;;13.52;8.82;;;12.50;67.70;;;;;;5032806;28;20029;-72
2021/11/08 13:09:51;;;;;;;14.38;9.63;;;12.50;67.70;;;;;;5033015;28;20033;-71
2021/11/08 13:12:39;;;;;;;15.40;9.27;;;12.50;68.00;;;;;;5039401;28;20072;-72
2021/11/08 13:15:09;;;;;;;16.58;10.88;;;12.40;68.30;;;;;;5028273;28;20031;-72
2021/11/08 13:18:14;;;;;;;14.63;9.30;;;12.40;68.30;;;;;;5033153;28;20018;-72
2021/11/08 13:20:48;;;;;;;13.73;9.00;;;12.40;68.10;;;;;;4992541;28;20415;-73
2021/11/08 13:23:20;;;;;;;14.25;9.45;;;12.40;68.20;;;;;;5011236;28;20134;-72
2021/11/08 13:25:55;;;;;;;16.35;10.25;;;12.40;68.40;;;;;;5012270;28;20484;-71
2021/11/08 13:28:24;;;;;;;17.65;12.95;;;12.30;68.30;;;;;;5031391;28;20109;-71
2021/11/08 13:30:56;;;;;;;17.30;11.25;;;12.30;68.20;;;;;;5032223;28;20028;-69
2021/11/08 13:33:35;;;;;;;15.95;10.85;;;12.30;68.30;;;;;;5031430;28;20024;-70
2021/11/08 13:36:01;;;;;;;15.82;11.77;;;12.30;68.50;;;;;;5033732;28;20025;-71
2021/11/08 13:38:31;;;;;;;15.90;10.98;;;12.20;68.60;;;;;;5032098;28;20018;-71
2021/11/08 13:41:16;;;;;;;14.80;10.57;;;12.20;68.70;;;;;;5033238;28;20071;-72
2021/11/08 13:43:48;;;;;;;17.20;10.48;;;12.20;68.80;;;;;;5018230;28;20146;-71
2021/11/08 13:46:18;;;;;;;14.90;10.02;;;12.20;68.90;;;;;;5032297;28;20037;-71
2021/11/08 13:48:48;;;;;;;16.33;10.43;;;12.20;69.20;;;;;;5032998;28;20116;-72
2021/11/08 13:51:41;;;;;;;18.17;11.10;;;12.20;69.20;;;;;;5033586;28;20028;-72
2021/11/08 13:54:12;;;;;;;14.10;9.95;;;12.10;69.30;;;;;;5033001;28;20021;-72
2021/11/08 13:56:39;;;;;;;19.60;10.77;;;12.10;69.60;;;;;;5033373;28;20117;-71
2021/11/08 13:59:12;;;;;;;13.50;10.15;;;12.10;69.80;;;;;;5031889;28;20029;-72
2021/11/08 14:01:42;;;;;;;16.52;11.13;;;12.10;70.00;;;;;;5031848;28;20021;-70
2021/11/08 14:04:09;;;;;;;17.83;12.02;;;12.10;70.00;;;;;;5032937;28;20375;-72
2021/11/08 14:06:36;;;;;;;14.63;11.25;;;12.10;70.00;;;;;;5032040;28;20029;-73
2021/11/08 14:09:05;;;;;;;18.10;12.50;;;12.10;70.00;;;;;;5041652;28;20036;-72
2021/11/08 14:11:33;;;;;;;15.02;11.40;;;12.00;70.10;;;;;;5049141;28;20044;-72
2021/11/08 14:14:15;;;;;;;17.38;11.85;;;12.10;70.10;;;;;;5038186;28;20105;-72
2021/11/08 14:16:44;;;;;;;18.30;11.15;;;12.00;70.40;;;;;;5023555;28;20036;-72
2021/11/08 14:19:11;;;;;;;16.13;11.43;;;12.00;70.30;;;;;;5035445;28;20022;-71
2021/11/08 14:21:37;;;;;;;18.48;12.23;;;12.00;70.30;;;;;;5037483;28;20032;-72
2021/11/08 14:24:13;;;;;;;20.70;12.30;;;12.00;70.30;;;;;;5036099;28;20079;-71
2021/11/08 14:26:42;;;;;;;17.83;12.20;;;12.00;70.50;;;;;;5035595;28;20438;-71
2021/11/08 14:29:21;;;;;;;20.00;12.68;;;11.90;70.60;;;;;;5068653;28;20022;-72
2021/11/08 14:31:59;;;;;;;18.70;13.02;;;11.90;70.80;;;;;;5035399;28;20017;-71
2021/11/08 14:34:31;;;;;;;16.83;12.15;;;11.80;71.30;;;;;;5035811;28;20031;-71